BAW21ML KDEN-EGLL
Flight info
| Callsign | BAW21ML |
|---|---|
| Flight time | N/A |
| Altitude | 35000 |
| Route | CHUWY1 CHUWY Q88 VIVID DCT DLH/N0495F370 DCT OVORA DCT PEMLU DCT MEMSO DCT PUVOK DCT DORYY/M084F390 DCT 58N050W 59N040W 59N030W 58N020W DCT SUNOT DCT KESIX/N0487F390 DCT APSOV DCT KELLY L10 WAL UY53 NUGRA |
| Aircraft | A35K/H-SBDE1E2E3GHIJ1J3J4J5J6M1M2P2RWXYZ/LB1D1 |
Departure
| Time | 2026-05-01 09:42 |
|---|---|
| Airport | Denver International Airport (KDEN) |
Arrival
| Time | N/A |
|---|---|
| Airport | London Heathrow Airport (EGLL) |
| Time | Latitude | Longitude | Altitude | Speed | Heading |
|---|---|---|---|---|---|
| 2026-05-01 09:14 | 39.85446 | -104.67311 | 5372 ft | 0 kts | 179° |
| 2026-05-01 09:30 | 39.85455 | -104.67311 | 5372 ft | 4 kts | 179° |
| 2026-05-01 09:30 | 39.85479 | -104.67312 | 5368 ft | 2 kts | 179° |
| 2026-05-01 09:30 | 39.85519 | -104.67338 | 5367 ft | 4 kts | 101° |
| 2026-05-01 09:31 | 39.85521 | -104.67370 | 5368 ft | 4 kts | 90° |
| 2026-05-01 09:31 | 39.85521 | -104.67399 | 5368 ft | 0 kts | 90° |
| 2026-05-01 09:36 | 39.85521 | -104.67395 | 5368 ft | 2 kts | 90° |
| 2026-05-01 09:36 | 39.85521 | -104.67374 | 5368 ft | 6 kts | 90° |
| 2026-05-01 09:36 | 39.85521 | -104.67315 | 5367 ft | 8 kts | 90° |
| 2026-05-01 09:36 | 39.85521 | -104.67234 | 5369 ft | 10 kts | 89° |
| 2026-05-01 09:37 | 39.85522 | -104.67134 | 5369 ft | 12 kts | 89° |
| 2026-05-01 09:37 | 39.85586 | -104.66917 | 5369 ft | 14 kts | 88° |
| 2026-05-01 09:37 | 39.85586 | -104.66781 | 5371 ft | 16 kts | 92° |
| 2026-05-01 09:38 | 39.85583 | -104.66481 | 5372 ft | 18 kts | 90° |
| 2026-05-01 09:38 | 39.85635 | -104.66354 | 5368 ft | 17 kts | 13° |
| 2026-05-01 09:38 | 39.85758 | -104.66349 | 5370 ft | 18 kts | 0° |
| 2026-05-01 09:39 | 39.86008 | -104.66350 | 5370 ft | 16 kts | 1° |
| 2026-05-01 09:39 | 39.86091 | -104.66313 | 5367 ft | 13 kts | 47° |
| 2026-05-01 09:39 | 39.86109 | -104.66195 | 5369 ft | 14 kts | 88° |
| 2026-05-01 09:40 | 39.86110 | -104.66094 | 5368 ft | 8 kts | 90° |
| 2026-05-01 09:40 | 39.86048 | -104.66018 | 5368 ft | 0 kts | 171° |
| 2026-05-01 09:41 | 39.86047 | -104.66018 | 5368 ft | 0 kts | 173° |
| 2026-05-01 09:41 | 39.85832 | -104.66000 | 5371 ft | 61 kts | 179° |
| 2026-05-01 09:41 | 39.85171 | -104.66018 | 5367 ft | 129 kts | 181° |
| 2026-05-01 09:42 | 39.84069 | -104.66025 | 5459 ft | 179 kts | 180° |
| 2026-05-01 09:42 | 39.82874 | -104.66000 | 6393 ft | 171 kts | 180° |
| 2026-05-01 09:42 | 39.80291 | -104.66018 | 7109 ft | 205 kts | 182° |
| 2026-05-01 09:43 | 39.77137 | -104.66019 | 7505 ft | 250 kts | 176° |
| 2026-05-01 09:43 | 39.75386 | -104.65392 | 7727 ft | 274 kts | 151° |
| 2026-05-01 09:43 | 39.74029 | -104.63628 | 8327 ft | 283 kts | 117° |
| 2026-05-01 09:44 | 39.74266 | -104.58807 | 10022 ft | 279 kts | 53° |
| 2026-05-01 09:44 | 39.75780 | -104.57201 | 10542 ft | 293 kts | 24° |
| 2026-05-01 09:44 | 39.77820 | -104.56542 | 10834 ft | 312 kts | 9° |
| 2026-05-01 09:45 | 39.80007 | -104.56056 | 11128 ft | 332 kts | 11° |
| 2026-05-01 09:45 | 39.84734 | -104.54517 | 11777 ft | 365 kts | 15° |
| 2026-05-01 09:45 | 39.87203 | -104.53561 | 12394 ft | 372 kts | 16° |
| 2026-05-01 09:46 | 39.89694 | -104.52556 | 13049 ft | 377 kts | 16° |
| 2026-05-01 09:46 | 39.92216 | -104.51519 | 13712 ft | 382 kts | 16° |
| 2026-05-01 09:46 | 39.94765 | -104.50459 | 14350 ft | 386 kts | 16° |
| 2026-05-01 09:46 | 39.97299 | -104.49398 | 14953 ft | 389 kts | 16° |
| 2026-05-01 09:47 | 39.99922 | -104.48297 | 15592 ft | 392 kts | 16° |
| 2026-05-01 09:47 | 40.02494 | -104.47214 | 16234 ft | 395 kts | 16° |
| 2026-05-01 09:47 | 40.05125 | -104.46105 | 16842 ft | 398 kts | 16° |
| 2026-05-01 09:47 | 40.07780 | -104.44985 | 17434 ft | 403 kts | 16° |
| 2026-05-01 09:48 | 40.10456 | -104.43854 | 18045 ft | 406 kts | 16° |
| 2026-05-01 09:48 | 40.13162 | -104.42709 | 18643 ft | 410 kts | 16° |
| 2026-05-01 09:48 | 40.15895 | -104.41552 | 19200 ft | 414 kts | 16° |
| 2026-05-01 09:48 | 40.18654 | -104.40384 | 19794 ft | 417 kts | 16° |
| 2026-05-01 09:49 | 40.21426 | -104.39208 | 20377 ft | 421 kts | 15° |
| 2026-05-01 09:49 | 40.24225 | -104.38021 | 20965 ft | 423 kts | 15° |
| 2026-05-01 09:49 | 40.26994 | -104.36844 | 21609 ft | 425 kts | 15° |
| 2026-05-01 09:49 | 40.29822 | -104.35642 | 22179 ft | 428 kts | 15° |
| 2026-05-01 09:50 | 40.32674 | -104.34429 | 22734 ft | 432 kts | 15° |
| 2026-05-01 09:50 | 40.35543 | -104.33207 | 23295 ft | 435 kts | 15° |
| 2026-05-01 09:50 | 40.38448 | -104.31969 | 23853 ft | 439 kts | 15° |
| 2026-05-01 09:50 | 40.41361 | -104.30726 | 24312 ft | 442 kts | 15° |
| 2026-05-01 09:51 | 40.44264 | -104.29486 | 24752 ft | 446 kts | 15° |
| 2026-05-01 09:51 | 40.47222 | -104.28222 | 25259 ft | 448 kts | 15° |
| 2026-05-01 09:51 | 40.50200 | -104.26948 | 25788 ft | 449 kts | 15° |
| 2026-05-01 09:51 | 40.53176 | -104.25645 | 26234 ft | 454 kts | 17° |
| 2026-05-01 09:52 | 40.56096 | -104.23969 | 26684 ft | 461 kts | 25° |
| 2026-05-01 09:52 | 40.58805 | -104.21651 | 27117 ft | 469 kts | 37° |
| 2026-05-01 09:52 | 40.61201 | -104.18675 | 27492 ft | 476 kts | 43° |
| 2026-05-01 09:52 | 40.63488 | -104.15490 | 27880 ft | 481 kts | 44° |
| 2026-05-01 09:53 | 40.65771 | -104.12243 | 28336 ft | 484 kts | 44° |
| 2026-05-01 09:53 | 40.68034 | -104.09011 | 28735 ft | 488 kts | 44° |
| 2026-05-01 09:53 | 40.70344 | -104.05709 | 29113 ft | 491 kts | 44° |
| 2026-05-01 09:53 | 40.72666 | -104.02384 | 29561 ft | 493 kts | 44° |
| 2026-05-01 09:54 | 40.74998 | -103.99043 | 29921 ft | 496 kts | 44° |
| 2026-05-01 09:54 | 40.77353 | -103.95666 | 30280 ft | 500 kts | 44° |
| 2026-05-01 09:54 | 40.79719 | -103.92269 | 30540 ft | 503 kts | 44° |
| 2026-05-01 09:54 | 40.82093 | -103.88855 | 30874 ft | 504 kts | 44° |
| 2026-05-01 09:55 | 40.83667 | -103.86589 | 31163 ft | 504 kts | 44° |
| 2026-05-01 09:55 | 40.86801 | -103.82072 | 31671 ft | 504 kts | 43° |
| 2026-05-01 09:55 | 40.89180 | -103.78641 | 32005 ft | 505 kts | 43° |
| 2026-05-01 09:55 | 40.91555 | -103.75210 | 32315 ft | 505 kts | 43° |
| 2026-05-01 09:56 | 40.93129 | -103.72936 | 32545 ft | 505 kts | 43° |
| 2026-05-01 09:56 | 40.95502 | -103.69501 | 32897 ft | 505 kts | 43° |
| 2026-05-01 09:56 | 40.97866 | -103.66076 | 33461 ft | 500 kts | 44° |
| 2026-05-01 09:56 | 41.00193 | -103.62698 | 34027 ft | 496 kts | 44° |
| 2026-05-01 09:57 | 41.02522 | -103.59318 | 34242 ft | 498 kts | 44° |
| 2026-05-01 09:57 | 41.04863 | -103.55918 | 34411 ft | 500 kts | 44° |
| 2026-05-01 09:57 | 41.07204 | -103.52513 | 34619 ft | 501 kts | 44° |
| 2026-05-01 09:57 | 41.09552 | -103.49092 | 34861 ft | 501 kts | 44° |
| 2026-05-01 09:58 | 41.11906 | -103.45660 | 34976 ft | 504 kts | 43° |
| 2026-05-01 09:58 | 41.14272 | -103.42206 | 35117 ft | 507 kts | 43° |
| 2026-05-01 09:58 | 41.19054 | -103.35215 | 35167 ft | 513 kts | 44° |
| 2026-05-01 09:59 | 41.23809 | -103.28243 | 35176 ft | 510 kts | 44° |
| 2026-05-01 09:59 | 41.28545 | -103.21282 | 35179 ft | 506 kts | 44° |
| 2026-05-01 10:00 | 41.33261 | -103.14334 | 35174 ft | 505 kts | 44° |
| 2026-05-01 10:00 | 41.37979 | -103.07370 | 35164 ft | 507 kts | 44° |
| 2026-05-01 10:01 | 41.42705 | -103.00378 | 35154 ft | 508 kts | 44° |
| 2026-05-01 10:01 | 41.47404 | -102.93408 | 35174 ft | 508 kts | 44° |
| 2026-05-01 10:02 | 41.52206 | -102.86607 | 35172 ft | 498 kts | 39° |
| 2026-05-01 10:02 | 41.57353 | -102.80432 | 35172 ft | 496 kts | 37° |
| 2026-05-01 10:03 | 41.62571 | -102.74391 | 35196 ft | 497 kts | 36° |
| 2026-05-01 10:03 | 41.67802 | -102.68308 | 35198 ft | 499 kts | 36° |
| 2026-05-01 10:04 | 41.72993 | -102.62214 | 35215 ft | 498 kts | 37° |
| 2026-05-01 10:04 | 41.78195 | -102.56074 | 35203 ft | 497 kts | 37° |
| 2026-05-01 10:05 | 41.83358 | -102.49965 | 35205 ft | 497 kts | 37° |
| 2026-05-01 10:05 | 41.88554 | -102.43808 | 35190 ft | 497 kts | 37° |
| 2026-05-01 10:06 | 41.93742 | -102.37646 | 35200 ft | 498 kts | 37° |
| 2026-05-01 10:06 | 41.98898 | -102.31507 | 35197 ft | 496 kts | 37° |
| 2026-05-01 10:07 | 42.04059 | -102.25347 | 35198 ft | 495 kts | 37° |
| 2026-05-01 10:07 | 42.09219 | -102.19178 | 35197 ft | 495 kts | 37° |
| 2026-05-01 10:08 | 42.16910 | -102.09957 | 35200 ft | 495 kts | 37° |
| 2026-05-01 10:09 | 42.22051 | -102.03775 | 35230 ft | 495 kts | 37° |
| 2026-05-01 10:09 | 42.27195 | -101.97575 | 35200 ft | 496 kts | 37° |
| 2026-05-01 10:10 | 42.32350 | -101.91346 | 35201 ft | 496 kts | 37° |
| 2026-05-01 10:10 | 42.40073 | -101.81989 | 35202 ft | 496 kts | 37° |
| 2026-05-01 10:11 | 42.45180 | -101.75784 | 35203 ft | 494 kts | 37° |
| 2026-05-01 10:11 | 42.50286 | -101.69569 | 35204 ft | 493 kts | 37° |
| 2026-05-01 10:12 | 42.55399 | -101.63327 | 35203 ft | 494 kts | 37° |
| 2026-05-01 10:13 | 42.63077 | -101.53930 | 35213 ft | 495 kts | 37° |
| 2026-05-01 10:13 | 42.68192 | -101.47650 | 35214 ft | 494 kts | 38° |
| 2026-05-01 10:14 | 42.75800 | -101.38284 | 35221 ft | 493 kts | 38° |
| 2026-05-01 10:14 | 42.80892 | -101.31997 | 35218 ft | 493 kts | 38° |
| 2026-05-01 10:15 | 42.85990 | -101.25690 | 35229 ft | 495 kts | 37° |
| 2026-05-01 10:15 | 42.91061 | -101.19401 | 35223 ft | 495 kts | 38° |
| 2026-05-01 10:16 | 42.96144 | -101.13078 | 35226 ft | 493 kts | 38° |
| 2026-05-01 10:17 | 43.03749 | -101.03596 | 35193 ft | 493 kts | 38° |
| 2026-05-01 10:17 | 43.11311 | -100.94135 | 35175 ft | 493 kts | 38° |
| 2026-05-01 10:18 | 43.18849 | -100.84666 | 35149 ft | 487 kts | 38° |
| 2026-05-01 10:19 | 43.23846 | -100.78374 | 35145 ft | 487 kts | 38° |
| 2026-05-01 10:19 | 43.28848 | -100.72063 | 35148 ft | 487 kts | 38° |
| 2026-05-01 10:20 | 43.36308 | -100.62619 | 35172 ft | 486 kts | 38° |
| 2026-05-01 10:20 | 43.41271 | -100.56325 | 35214 ft | 483 kts | 38° |
| 2026-05-01 10:21 | 43.48683 | -100.46882 | 35221 ft | 488 kts | 38° |
| 2026-05-01 10:22 | 43.56148 | -100.37336 | 35237 ft | 488 kts | 39° |
| 2026-05-01 10:22 | 43.61108 | -100.30976 | 35426 ft | 485 kts | 39° |
| 2026-05-01 10:23 | 43.63577 | -100.27805 | 35661 ft | 484 kts | 39° |
| 2026-05-01 10:23 | 43.68505 | -100.21466 | 36142 ft | 483 kts | 39° |
| 2026-05-01 10:23 | 43.70964 | -100.18297 | 36409 ft | 483 kts | 39° |
| 2026-05-01 10:24 | 43.75832 | -100.12014 | 36904 ft | 480 kts | 39° |
| 2026-05-01 10:24 | 43.80715 | -100.05696 | 37226 ft | 482 kts | 39° |
| 2026-05-01 10:25 | 43.85520 | -99.99072 | 37229 ft | 495 kts | 47° |
| 2026-05-01 10:25 | 43.89436 | -99.91073 | 37223 ft | 504 kts | 54° |
| 2026-05-01 10:26 | 43.93037 | -99.82770 | 37247 ft | 505 kts | 56° |
| 2026-05-01 10:27 | 44.00202 | -99.65922 | 37216 ft | 507 kts | 56° |
| 2026-05-01 10:28 | 44.05600 | -99.53277 | 37219 ft | 505 kts | 56° |
| 2026-05-01 10:28 | 44.10947 | -99.40711 | 37218 ft | 505 kts | 56° |
| 2026-05-01 10:29 | 44.16316 | -99.28035 | 37216 ft | 506 kts | 56° |
| 2026-05-01 10:30 | 44.23435 | -99.11138 | 35919 ft | 506 kts | 56° |
| 2026-05-01 10:31 | 44.26988 | -99.02670 | 37237 ft | 506 kts | 56° |
| 2026-05-01 10:31 | 44.30530 | -98.94196 | 37219 ft | 505 kts | 56° |
| 2026-05-01 10:32 | 44.35800 | -98.81545 | 37213 ft | 504 kts | 57° |
| 2026-05-01 10:33 | 44.42840 | -98.64563 | 37211 ft | 505 kts | 57° |
| 2026-05-01 10:34 | 44.48113 | -98.51774 | 37208 ft | 505 kts | 57° |
| 2026-05-01 10:34 | 44.51623 | -98.43227 | 37188 ft | 505 kts | 57° |
| 2026-05-01 10:35 | 44.56870 | -98.30405 | 37191 ft | 506 kts | 57° |
| 2026-05-01 10:35 | 44.60345 | -98.21881 | 37185 ft | 506 kts | 57° |
| 2026-05-01 10:36 | 44.65581 | -98.08988 | 37193 ft | 506 kts | 57° |
| 2026-05-01 10:37 | 44.69068 | -98.00368 | 37191 ft | 506 kts | 57° |
| 2026-05-01 10:37 | 44.74254 | -97.87502 | 37194 ft | 506 kts | 58° |
| 2026-05-01 10:38 | 44.77716 | -97.78878 | 37193 ft | 505 kts | 58° |
| 2026-05-01 10:38 | 44.81163 | -97.70266 | 37185 ft | 505 kts | 58° |
| 2026-05-01 10:39 | 44.84608 | -97.61632 | 37193 ft | 505 kts | 58° |
| 2026-05-01 10:39 | 44.88045 | -97.52993 | 37187 ft | 505 kts | 58° |
| 2026-05-01 10:40 | 44.91481 | -97.44329 | 37162 ft | 505 kts | 58° |
| 2026-05-01 10:40 | 44.94890 | -97.35706 | 37155 ft | 505 kts | 58° |
| 2026-05-01 10:41 | 44.98307 | -97.27034 | 37149 ft | 505 kts | 58° |
| 2026-05-01 10:42 | 45.03420 | -97.14009 | 37179 ft | 504 kts | 58° |
| 2026-05-01 10:42 | 45.06799 | -97.05372 | 37179 ft | 504 kts | 58° |
| 2026-05-01 10:43 | 45.10189 | -96.96674 | 37181 ft | 504 kts | 58° |
| 2026-05-01 10:43 | 45.13001 | -96.89441 | 37186 ft | 504 kts | 58° |
| 2026-05-01 10:44 | 45.16379 | -96.80727 | 37182 ft | 505 kts | 59° |
| 2026-05-01 10:44 | 45.19756 | -96.71986 | 37184 ft | 505 kts | 59° |
| 2026-05-01 10:45 | 45.23123 | -96.63244 | 37184 ft | 503 kts | 59° |
| 2026-05-01 10:45 | 45.26454 | -96.54568 | 37172 ft | 503 kts | 59° |
| 2026-05-01 10:46 | 45.29803 | -96.45819 | 37157 ft | 504 kts | 59° |
| 2026-05-01 10:46 | 45.33147 | -96.37054 | 37171 ft | 504 kts | 59° |
| 2026-05-01 10:47 | 45.36464 | -96.28331 | 37158 ft | 504 kts | 59° |
| 2026-05-01 10:47 | 45.39798 | -96.19538 | 37168 ft | 504 kts | 59° |
| 2026-05-01 10:48 | 45.43124 | -96.10735 | 37152 ft | 504 kts | 59° |
| 2026-05-01 10:48 | 45.46434 | -96.01947 | 37139 ft | 503 kts | 59° |
| 2026-05-01 10:49 | 45.49737 | -95.93152 | 37135 ft | 503 kts | 59° |
| 2026-05-01 10:49 | 45.53012 | -95.84400 | 37154 ft | 503 kts | 59° |
| 2026-05-01 10:50 | 45.56308 | -95.75566 | 37148 ft | 503 kts | 59° |
| 2026-05-01 10:50 | 45.59589 | -95.66742 | 37153 ft | 503 kts | 59° |
| 2026-05-01 10:51 | 45.62868 | -95.57894 | 37140 ft | 503 kts | 59° |
| 2026-05-01 10:51 | 45.66123 | -95.49086 | 37132 ft | 503 kts | 60° |
| 2026-05-01 10:52 | 45.69381 | -95.40236 | 37130 ft | 502 kts | 60° |
| 2026-05-01 10:52 | 45.72630 | -95.31385 | 37143 ft | 502 kts | 60° |
| 2026-05-01 10:53 | 45.75876 | -95.22513 | 37143 ft | 502 kts | 60° |
| 2026-05-01 10:53 | 45.79093 | -95.13691 | 37150 ft | 502 kts | 60° |
| 2026-05-01 10:54 | 45.82322 | -95.04807 | 37153 ft | 502 kts | 60° |
| 2026-05-01 10:54 | 45.85548 | -94.95902 | 37157 ft | 502 kts | 60° |
| 2026-05-01 10:55 | 45.88765 | -94.86991 | 37160 ft | 502 kts | 60° |
| 2026-05-01 10:55 | 45.91859 | -94.78393 | 37157 ft | 501 kts | 60° |
| 2026-05-01 10:56 | 45.95051 | -94.69495 | 37153 ft | 501 kts | 60° |
| 2026-05-01 10:56 | 45.98235 | -94.60592 | 37148 ft | 501 kts | 60° |
| 2026-05-01 10:57 | 46.01414 | -94.51671 | 37124 ft | 501 kts | 60° |
| 2026-05-01 10:57 | 46.04562 | -94.42806 | 37119 ft | 501 kts | 60° |
| 2026-05-01 10:58 | 46.07726 | -94.33868 | 37124 ft | 501 kts | 60° |
| 2026-05-01 10:58 | 46.10881 | -94.24925 | 37119 ft | 500 kts | 60° |
| 2026-05-01 10:59 | 46.14025 | -94.15984 | 37129 ft | 499 kts | 61° |
| 2026-05-01 10:59 | 46.17161 | -94.07034 | 37137 ft | 499 kts | 61° |
| 2026-05-01 11:00 | 46.20291 | -93.98073 | 37155 ft | 499 kts | 61° |
| 2026-05-01 11:00 | 46.23391 | -93.89168 | 37150 ft | 499 kts | 61° |
| 2026-05-01 11:01 | 46.26504 | -93.80195 | 37151 ft | 499 kts | 61° |
| 2026-05-01 11:01 | 46.29603 | -93.71230 | 37157 ft | 499 kts | 61° |
| 2026-05-01 11:02 | 46.32702 | -93.62236 | 37153 ft | 498 kts | 61° |
| 2026-05-01 11:02 | 46.35785 | -93.53258 | 37156 ft | 498 kts | 61° |
| 2026-05-01 11:03 | 46.38859 | -93.44275 | 37157 ft | 498 kts | 61° |
| 2026-05-01 11:03 | 46.41909 | -93.35332 | 37151 ft | 498 kts | 61° |
| 2026-05-01 11:04 | 46.44972 | -93.26323 | 37151 ft | 498 kts | 62° |
| 2026-05-01 11:04 | 46.48027 | -93.17304 | 37151 ft | 498 kts | 62° |
| 2026-05-01 11:05 | 46.51074 | -93.08277 | 37155 ft | 498 kts | 62° |
| 2026-05-01 11:05 | 46.54096 | -92.99293 | 37158 ft | 497 kts | 62° |
| 2026-05-01 11:06 | 46.57126 | -92.90254 | 37158 ft | 497 kts | 62° |
| 2026-05-01 11:06 | 46.60151 | -92.81198 | 37164 ft | 497 kts | 62° |
| 2026-05-01 11:07 | 46.64646 | -92.67685 | 37126 ft | 496 kts | 62° |
| 2026-05-01 11:07 | 46.67649 | -92.58618 | 37127 ft | 496 kts | 62° |
| 2026-05-01 11:08 | 46.70643 | -92.49546 | 37132 ft | 496 kts | 62° |
| 2026-05-01 11:09 | 46.75119 | -92.35924 | 37143 ft | 496 kts | 62° |
| 2026-05-01 11:09 | 46.78074 | -92.26892 | 37123 ft | 496 kts | 62° |
| 2026-05-01 11:10 | 46.82637 | -92.13305 | 37123 ft | 495 kts | 59° |
| 2026-05-01 11:10 | 46.85950 | -92.04468 | 37136 ft | 495 kts | 59° |
| 2026-05-01 11:11 | 46.89263 | -91.95639 | 37138 ft | 496 kts | 59° |
| 2026-05-01 11:11 | 46.92539 | -91.86741 | 37135 ft | 496 kts | 59° |
| 2026-05-01 11:12 | 46.95765 | -91.77880 | 37136 ft | 496 kts | 60° |
| 2026-05-01 11:12 | 46.99006 | -91.68933 | 37128 ft | 496 kts | 60° |
| 2026-05-01 11:13 | 47.02228 | -91.60014 | 37132 ft | 495 kts | 60° |
| 2026-05-01 11:13 | 47.05430 | -91.51127 | 37137 ft | 495 kts | 60° |
| 2026-05-01 11:14 | 47.08643 | -91.42176 | 37144 ft | 495 kts | 60° |
| 2026-05-01 11:14 | 47.11845 | -91.33230 | 37159 ft | 495 kts | 60° |
| 2026-05-01 11:15 | 47.15006 | -91.24368 | 37159 ft | 495 kts | 60° |
| 2026-05-01 11:15 | 47.18180 | -91.15439 | 37162 ft | 496 kts | 60° |
| 2026-05-01 11:16 | 47.21368 | -91.06439 | 37156 ft | 495 kts | 60° |
| 2026-05-01 11:16 | 47.24542 | -90.97449 | 37157 ft | 495 kts | 60° |
| 2026-05-01 11:17 | 47.27708 | -90.88452 | 37156 ft | 495 kts | 60° |
| 2026-05-01 11:17 | 47.30870 | -90.79432 | 37159 ft | 495 kts | 61° |
| 2026-05-01 11:18 | 47.34006 | -90.70457 | 37156 ft | 495 kts | 61° |
| 2026-05-01 11:18 | 47.37159 | -90.61403 | 37158 ft | 495 kts | 61° |
| 2026-05-01 11:19 | 47.40300 | -90.52353 | 37156 ft | 495 kts | 61° |
| 2026-05-01 11:19 | 47.43436 | -90.43285 | 37157 ft | 494 kts | 61° |
| 2026-05-01 11:20 | 47.46541 | -90.34277 | 37157 ft | 495 kts | 61° |
| 2026-05-01 11:20 | 47.49660 | -90.25195 | 37154 ft | 495 kts | 61° |
| 2026-05-01 11:21 | 47.52772 | -90.16103 | 37151 ft | 495 kts | 61° |
| 2026-05-01 11:21 | 47.55880 | -90.06989 | 37151 ft | 495 kts | 61° |
| 2026-05-01 11:22 | 47.58977 | -89.97876 | 37157 ft | 495 kts | 62° |
| 2026-05-01 11:22 | 47.62052 | -89.88797 | 37146 ft | 495 kts | 62° |
| 2026-05-01 11:23 | 47.65135 | -89.79661 | 37146 ft | 495 kts | 62° |
| 2026-05-01 11:23 | 47.68189 | -89.70578 | 37146 ft | 494 kts | 62° |
| 2026-05-01 11:24 | 47.71259 | -89.61416 | 37140 ft | 495 kts | 62° |
| 2026-05-01 11:25 | 47.75846 | -89.47669 | 37137 ft | 495 kts | 62° |
| 2026-05-01 11:25 | 47.80396 | -89.33957 | 37138 ft | 495 kts | 62° |
| 2026-05-01 11:26 | 47.84947 | -89.20167 | 37132 ft | 494 kts | 62° |
| 2026-05-01 11:27 | 47.87970 | -89.10968 | 37129 ft | 494 kts | 62° |
| 2026-05-01 11:27 | 47.90966 | -89.01819 | 37127 ft | 494 kts | 62° |
| 2026-05-01 11:28 | 47.93978 | -88.92583 | 37125 ft | 494 kts | 62° |
| 2026-05-01 11:28 | 47.96981 | -88.83344 | 37125 ft | 494 kts | 62° |
| 2026-05-01 11:29 | 48.01449 | -88.69537 | 37120 ft | 494 kts | 63° |
| 2026-05-01 11:30 | 48.05914 | -88.55663 | 37124 ft | 494 kts | 63° |
| 2026-05-01 11:30 | 48.08382 | -88.47963 | 37139 ft | 493 kts | 63° |
| 2026-05-01 11:31 | 48.11348 | -88.38673 | 37118 ft | 494 kts | 63° |
| 2026-05-01 11:31 | 48.14285 | -88.29445 | 37146 ft | 494 kts | 63° |
| 2026-05-01 11:32 | 48.17237 | -88.20134 | 37130 ft | 494 kts | 63° |
| 2026-05-01 11:32 | 48.20178 | -88.10823 | 37127 ft | 494 kts | 63° |
| 2026-05-01 11:33 | 48.23095 | -88.01556 | 37129 ft | 494 kts | 63° |
| 2026-05-01 11:33 | 48.26019 | -87.92229 | 37133 ft | 493 kts | 63° |
| 2026-05-01 11:34 | 48.28936 | -87.82889 | 37131 ft | 493 kts | 63° |
| 2026-05-01 11:34 | 48.31827 | -87.73600 | 37126 ft | 494 kts | 63° |
| 2026-05-01 11:35 | 48.34746 | -87.64186 | 37124 ft | 494 kts | 63° |
| 2026-05-01 11:35 | 48.37622 | -87.54872 | 37122 ft | 494 kts | 63° |
| 2026-05-01 11:36 | 48.40512 | -87.45483 | 37117 ft | 494 kts | 64° |
| 2026-05-01 11:36 | 48.43389 | -87.36096 | 37121 ft | 493 kts | 64° |
| 2026-05-01 11:37 | 48.46244 | -87.26748 | 37122 ft | 494 kts | 64° |
| 2026-05-01 11:37 | 48.49111 | -87.17325 | 37121 ft | 494 kts | 64° |
| 2026-05-01 11:38 | 48.51966 | -87.07906 | 37121 ft | 494 kts | 64° |
| 2026-05-01 11:38 | 48.54816 | -86.98468 | 37121 ft | 494 kts | 64° |
| 2026-05-01 11:39 | 48.57661 | -86.89007 | 37121 ft | 494 kts | 64° |
| 2026-05-01 11:39 | 48.60484 | -86.79588 | 37120 ft | 495 kts | 64° |
| 2026-05-01 11:40 | 48.63317 | -86.70095 | 37124 ft | 494 kts | 64° |
| 2026-05-01 11:40 | 48.66138 | -86.60607 | 37124 ft | 494 kts | 64° |
| 2026-05-01 11:41 | 48.68950 | -86.51112 | 37137 ft | 494 kts | 65° |
| 2026-05-01 11:41 | 48.71761 | -86.41585 | 37129 ft | 495 kts | 65° |
| 2026-05-01 11:42 | 48.74545 | -86.32114 | 37127 ft | 495 kts | 65° |
| 2026-05-01 11:42 | 48.77692 | -86.22820 | 37127 ft | 495 kts | 59° |
| 2026-05-01 11:43 | 48.81121 | -86.13777 | 37121 ft | 495 kts | 59° |
| 2026-05-01 11:43 | 48.84509 | -86.04691 | 37126 ft | 495 kts | 60° |
| 2026-05-01 11:44 | 48.89493 | -85.90898 | 37118 ft | 496 kts | 60° |
| 2026-05-01 11:44 | 48.92769 | -85.81726 | 37119 ft | 496 kts | 60° |
| 2026-05-01 11:45 | 48.96056 | -85.72495 | 37117 ft | 496 kts | 60° |
| 2026-05-01 11:45 | 48.99346 | -85.63232 | 37117 ft | 496 kts | 60° |
| 2026-05-01 11:46 | 49.02624 | -85.53975 | 37111 ft | 496 kts | 60° |
| 2026-05-01 11:46 | 49.05876 | -85.44757 | 37110 ft | 496 kts | 61° |
| 2026-05-01 11:47 | 49.09138 | -85.35475 | 37111 ft | 496 kts | 60° |
| 2026-05-01 11:47 | 49.12398 | -85.26168 | 37110 ft | 497 kts | 61° |
| 2026-05-01 11:48 | 49.15647 | -85.16857 | 37105 ft | 497 kts | 61° |
| 2026-05-01 11:48 | 49.18897 | -85.07511 | 37107 ft | 497 kts | 61° |
| 2026-05-01 11:49 | 49.22109 | -84.98238 | 37102 ft | 496 kts | 61° |
| 2026-05-01 11:49 | 49.25338 | -84.88884 | 37105 ft | 496 kts | 61° |
| 2026-05-01 11:50 | 49.28551 | -84.79543 | 37100 ft | 496 kts | 61° |
| 2026-05-01 11:50 | 49.31739 | -84.70241 | 37099 ft | 496 kts | 61° |
| 2026-05-01 11:51 | 49.34944 | -84.60854 | 37101 ft | 496 kts | 61° |
| 2026-05-01 11:51 | 49.38141 | -84.51456 | 37099 ft | 496 kts | 62° |
| 2026-05-01 11:52 | 49.41326 | -84.42058 | 37094 ft | 496 kts | 62° |
| 2026-05-01 11:52 | 49.44484 | -84.32707 | 37094 ft | 495 kts | 62° |
| 2026-05-01 11:53 | 49.47650 | -84.23294 | 37094 ft | 495 kts | 62° |
| 2026-05-01 11:53 | 49.50811 | -84.13866 | 37095 ft | 495 kts | 62° |
| 2026-05-01 11:54 | 49.53965 | -84.04420 | 37091 ft | 496 kts | 62° |
| 2026-05-01 11:54 | 49.57117 | -83.94946 | 37095 ft | 497 kts | 62° |
| 2026-05-01 11:55 | 49.60239 | -83.85528 | 37088 ft | 496 kts | 62° |
| 2026-05-01 11:55 | 49.63373 | -83.76039 | 37092 ft | 496 kts | 62° |
| 2026-05-01 11:56 | 49.66481 | -83.66590 | 37089 ft | 496 kts | 63° |
| 2026-05-01 11:56 | 49.69600 | -83.57074 | 37089 ft | 496 kts | 63° |
| 2026-05-01 11:57 | 49.72710 | -83.47551 | 37085 ft | 496 kts | 63° |
| 2026-05-01 11:57 | 49.75814 | -83.38008 | 37086 ft | 496 kts | 63° |
| 2026-05-01 11:58 | 49.78889 | -83.28520 | 37080 ft | 496 kts | 63° |
| 2026-05-01 11:59 | 49.83505 | -83.14206 | 37080 ft | 495 kts | 63° |
| 2026-05-01 11:59 | 49.86577 | -83.04633 | 37075 ft | 495 kts | 64° |
| 2026-05-01 12:00 | 49.91167 | -82.90264 | 37078 ft | 495 kts | 64° |
| 2026-05-01 12:01 | 49.95718 | -82.75936 | 37076 ft | 495 kts | 64° |
| 2026-05-01 12:01 | 49.98757 | -82.66321 | 37071 ft | 495 kts | 64° |
| 2026-05-01 12:02 | 50.01781 | -82.56717 | 37073 ft | 494 kts | 64° |
| 2026-05-01 12:02 | 50.04794 | -82.47108 | 37069 ft | 494 kts | 64° |
| 2026-05-01 12:03 | 50.07803 | -82.37475 | 37073 ft | 494 kts | 65° |
| 2026-05-01 12:03 | 50.10782 | -82.27903 | 37072 ft | 494 kts | 65° |
| 2026-05-01 12:04 | 50.13770 | -82.18264 | 37069 ft | 494 kts | 65° |
| 2026-05-01 12:04 | 50.16762 | -82.08572 | 37066 ft | 495 kts | 65° |
| 2026-05-01 12:05 | 50.19749 | -81.98861 | 37067 ft | 496 kts | 65° |
| 2026-05-01 12:05 | 50.24192 | -81.84342 | 37064 ft | 496 kts | 65° |
| 2026-05-01 12:06 | 50.27155 | -81.74611 | 37067 ft | 496 kts | 65° |
| 2026-05-01 12:06 | 50.30113 | -81.64861 | 37059 ft | 496 kts | 65° |
| 2026-05-01 12:07 | 50.33063 | -81.55095 | 37061 ft | 496 kts | 65° |
| 2026-05-01 12:07 | 50.36011 | -81.45296 | 37065 ft | 496 kts | 66° |
| 2026-05-01 12:08 | 50.38923 | -81.35578 | 37062 ft | 496 kts | 66° |
| 2026-05-01 12:08 | 50.41850 | -81.25773 | 37063 ft | 496 kts | 66° |
| 2026-05-01 12:09 | 50.44764 | -81.15970 | 37061 ft | 496 kts | 66° |
| 2026-05-01 12:09 | 50.47674 | -81.06138 | 37069 ft | 496 kts | 66° |
| 2026-05-01 12:10 | 50.52015 | -80.91400 | 37070 ft | 496 kts | 66° |
| 2026-05-01 12:11 | 50.56346 | -80.76605 | 37061 ft | 495 kts | 66° |
| 2026-05-01 12:11 | 50.59196 | -80.66822 | 37061 ft | 495 kts | 67° |
| 2026-05-01 12:12 | 50.62061 | -80.56941 | 37058 ft | 496 kts | 67° |
| 2026-05-01 12:12 | 50.64917 | -80.47054 | 37059 ft | 496 kts | 67° |
| 2026-05-01 12:13 | 50.67771 | -80.37134 | 37056 ft | 496 kts | 67° |
| 2026-05-01 12:13 | 50.70594 | -80.27278 | 37056 ft | 496 kts | 67° |
| 2026-05-01 12:14 | 50.73430 | -80.17336 | 37053 ft | 496 kts | 67° |
| 2026-05-01 12:14 | 50.76251 | -80.07406 | 37056 ft | 496 kts | 67° |
| 2026-05-01 12:15 | 50.79443 | -79.97730 | 37060 ft | 497 kts | 58° |
| 2026-05-01 12:15 | 50.83297 | -79.88700 | 37055 ft | 498 kts | 57° |
| 2026-05-01 12:16 | 50.87275 | -79.79713 | 37053 ft | 498 kts | 56° |
| 2026-05-01 12:16 | 50.91258 | -79.70716 | 37049 ft | 498 kts | 57° |
| 2026-05-01 12:17 | 50.95215 | -79.61706 | 37052 ft | 497 kts | 57° |
| 2026-05-01 12:17 | 50.99159 | -79.52670 | 37047 ft | 498 kts | 57° |
| 2026-05-01 12:18 | 51.03077 | -79.43659 | 37052 ft | 498 kts | 57° |
| 2026-05-01 12:18 | 51.07015 | -79.34570 | 37040 ft | 498 kts | 57° |
| 2026-05-01 12:19 | 51.10943 | -79.25476 | 37045 ft | 498 kts | 57° |
| 2026-05-01 12:19 | 51.14199 | -79.17911 | 37048 ft | 498 kts | 58° |
| 2026-05-01 12:20 | 51.18112 | -79.08795 | 37037 ft | 498 kts | 58° |
| 2026-05-01 12:20 | 51.22017 | -78.99662 | 37026 ft | 498 kts | 58° |
| 2026-05-01 12:21 | 51.25913 | -78.90519 | 37046 ft | 498 kts | 58° |
| 2026-05-01 12:21 | 51.29785 | -78.81399 | 37033 ft | 499 kts | 58° |
| 2026-05-01 12:22 | 51.33669 | -78.72221 | 37035 ft | 498 kts | 58° |
| 2026-05-01 12:22 | 51.37549 | -78.63017 | 37026 ft | 498 kts | 58° |
| 2026-05-01 12:23 | 51.41418 | -78.53808 | 37024 ft | 498 kts | 58° |
| 2026-05-01 12:23 | 51.45282 | -78.44577 | 37023 ft | 498 kts | 58° |
| 2026-05-01 12:24 | 51.49147 | -78.35314 | 37016 ft | 499 kts | 59° |
| 2026-05-01 12:24 | 51.52981 | -78.26087 | 37018 ft | 499 kts | 59° |
| 2026-05-01 12:25 | 51.58755 | -78.12132 | 37010 ft | 499 kts | 59° |
| 2026-05-01 12:26 | 51.62563 | -78.02888 | 37010 ft | 499 kts | 59° |
| 2026-05-01 12:26 | 51.68299 | -77.88901 | 37002 ft | 499 kts | 59° |
| 2026-05-01 12:27 | 51.74029 | -77.74853 | 36998 ft | 499 kts | 59° |
| 2026-05-01 12:28 | 51.79724 | -77.60816 | 36999 ft | 500 kts | 59° |
| 2026-05-01 12:29 | 51.85426 | -77.46684 | 36993 ft | 500 kts | 60° |
| 2026-05-01 12:29 | 51.91114 | -77.32506 | 36988 ft | 500 kts | 60° |
| 2026-05-01 12:30 | 51.96754 | -77.18369 | 36976 ft | 500 kts | 60° |
| 2026-05-01 12:31 | 52.00525 | -77.08871 | 36983 ft | 500 kts | 60° |
| 2026-05-01 12:31 | 52.04289 | -76.99357 | 36982 ft | 501 kts | 60° |
| 2026-05-01 12:32 | 52.08051 | -76.89814 | 36974 ft | 500 kts | 60° |
| 2026-05-01 12:32 | 52.13648 | -76.75552 | 36972 ft | 501 kts | 60° |
| 2026-05-01 12:33 | 52.17388 | -76.65977 | 36965 ft | 500 kts | 60° |
| 2026-05-01 12:33 | 52.21115 | -76.56397 | 36968 ft | 500 kts | 61° |
| 2026-05-01 12:34 | 52.24839 | -76.46790 | 36958 ft | 501 kts | 61° |
| 2026-05-01 12:34 | 52.28558 | -76.37159 | 36960 ft | 501 kts | 61° |
| 2026-05-01 12:35 | 52.32272 | -76.27503 | 36961 ft | 501 kts | 61° |
| 2026-05-01 12:35 | 52.35981 | -76.17825 | 36950 ft | 501 kts | 61° |
| 2026-05-01 12:36 | 52.39678 | -76.08141 | 36947 ft | 501 kts | 61° |
| 2026-05-01 12:36 | 52.43339 | -75.98516 | 36937 ft | 501 kts | 61° |
| 2026-05-01 12:37 | 52.47018 | -75.88806 | 36944 ft | 501 kts | 62° |
| 2026-05-01 12:37 | 52.50694 | -75.79066 | 36941 ft | 502 kts | 62° |
| 2026-05-01 12:38 | 52.54366 | -75.69300 | 36944 ft | 502 kts | 62° |
| 2026-05-01 12:38 | 52.58005 | -75.59586 | 36934 ft | 501 kts | 62° |
| 2026-05-01 12:39 | 52.61657 | -75.49796 | 36931 ft | 501 kts | 62° |
| 2026-05-01 12:39 | 52.65299 | -75.39997 | 36924 ft | 501 kts | 62° |
| 2026-05-01 12:40 | 52.68935 | -75.30176 | 36902 ft | 501 kts | 62° |
| 2026-05-01 12:40 | 52.72565 | -75.20332 | 36922 ft | 502 kts | 63° |
| 2026-05-01 12:41 | 52.76166 | -75.10528 | 36916 ft | 502 kts | 63° |
| 2026-05-01 12:41 | 52.79742 | -75.00605 | 36897 ft | 500 kts | 66° |
| 2026-05-01 12:42 | 52.82850 | -74.90321 | 36898 ft | 499 kts | 68° |
| 2026-05-01 12:42 | 52.85860 | -74.79968 | 36898 ft | 499 kts | 68° |
| 2026-05-01 12:43 | 52.88826 | -74.69653 | 36900 ft | 499 kts | 69° |
| 2026-05-01 12:43 | 52.91809 | -74.59256 | 36894 ft | 499 kts | 69° |
| 2026-05-01 12:44 | 52.94784 | -74.48854 | 36896 ft | 499 kts | 69° |
| 2026-05-01 12:45 | 53.00712 | -74.28014 | 36892 ft | 499 kts | 69° |
| 2026-05-01 12:45 | 53.03662 | -74.17568 | 36894 ft | 499 kts | 69° |
| 2026-05-01 12:46 | 53.06602 | -74.07116 | 36890 ft | 499 kts | 69° |
| 2026-05-01 12:46 | 53.09517 | -73.96702 | 36884 ft | 499 kts | 69° |
| 2026-05-01 12:47 | 53.12446 | -73.86196 | 36880 ft | 499 kts | 69° |
| 2026-05-01 12:47 | 53.15359 | -73.75695 | 36884 ft | 499 kts | 70° |
| 2026-05-01 12:48 | 53.18263 | -73.65178 | 36867 ft | 500 kts | 70° |
| 2026-05-01 12:48 | 53.21144 | -73.54701 | 36862 ft | 500 kts | 70° |
| 2026-05-01 12:49 | 53.24036 | -73.44134 | 36876 ft | 500 kts | 70° |
| 2026-05-01 12:49 | 53.26917 | -73.33559 | 36861 ft | 500 kts | 70° |
| 2026-05-01 12:50 | 53.29791 | -73.22963 | 36868 ft | 500 kts | 70° |
| 2026-05-01 12:50 | 53.32637 | -73.12417 | 36863 ft | 500 kts | 70° |
| 2026-05-01 12:51 | 53.35498 | -73.01770 | 36865 ft | 501 kts | 70° |
| 2026-05-01 12:52 | 53.39767 | -72.85791 | 36868 ft | 501 kts | 71° |
| 2026-05-01 12:52 | 53.42595 | -72.75145 | 37261 ft | 499 kts | 71° |
| 2026-05-01 12:52 | 53.44002 | -72.69831 | 37523 ft | 498 kts | 71° |
| 2026-05-01 12:53 | 53.46794 | -72.59244 | 38072 ft | 495 kts | 70° |
| 2026-05-01 12:53 | 53.48181 | -72.53966 | 38322 ft | 493 kts | 70° |
| 2026-05-01 12:53 | 53.49542 | -72.48776 | 38595 ft | 491 kts | 70° |
| 2026-05-01 12:54 | 53.50913 | -72.43533 | 38801 ft | 490 kts | 70° |
| 2026-05-01 12:54 | 53.55041 | -72.27659 | 38883 ft | 499 kts | 70° |
| 2026-05-01 12:55 | 53.59225 | -72.11472 | 38884 ft | 503 kts | 70° |
| 2026-05-01 12:56 | 53.61994 | -72.00707 | 38891 ft | 503 kts | 70° |
| 2026-05-01 12:56 | 53.64764 | -71.89881 | 38890 ft | 503 kts | 70° |
| 2026-05-01 12:57 | 53.67524 | -71.79034 | 38900 ft | 503 kts | 70° |
| 2026-05-01 12:57 | 53.71646 | -71.62738 | 38899 ft | 503 kts | 71° |
| 2026-05-01 12:58 | 53.74381 | -71.51862 | 38906 ft | 502 kts | 71° |
| 2026-05-01 12:59 | 53.78442 | -71.35608 | 38909 ft | 502 kts | 71° |
| 2026-05-01 12:59 | 53.82503 | -71.19237 | 38915 ft | 502 kts | 71° |
| 2026-05-01 13:00 | 53.86523 | -71.02912 | 38927 ft | 502 kts | 71° |
| 2026-05-01 13:01 | 53.90539 | -70.86472 | 38926 ft | 502 kts | 71° |
| 2026-05-01 13:02 | 53.94510 | -70.70101 | 38921 ft | 502 kts | 72° |
| 2026-05-01 13:07 | 54.22065 | -69.52938 | 38958 ft | 517 kts | 72° |
| 2026-05-01 13:07 | 54.23374 | -69.47207 | 38951 ft | 517 kts | 72° |
| 2026-05-01 13:08 | 54.25983 | -69.35748 | 38944 ft | 517 kts | 72° |
| 2026-05-01 13:08 | 54.28143 | -69.26209 | 38949 ft | 517 kts | 72° |
| 2026-05-01 13:09 | 54.30731 | -69.14719 | 38950 ft | 517 kts | 72° |
| 2026-05-01 13:09 | 54.33307 | -69.03221 | 38954 ft | 517 kts | 73° |
| 2026-05-01 13:10 | 54.35874 | -68.91700 | 38951 ft | 517 kts | 73° |
| 2026-05-01 13:10 | 54.38426 | -68.80186 | 38956 ft | 517 kts | 73° |
| 2026-05-01 13:11 | 54.40955 | -68.68711 | 38940 ft | 516 kts | 73° |
| 2026-05-01 13:11 | 54.43488 | -68.57153 | 38957 ft | 517 kts | 73° |
| 2026-05-01 13:12 | 54.46011 | -68.45575 | 38956 ft | 517 kts | 73° |
| 2026-05-01 13:12 | 54.48528 | -68.33961 | 38961 ft | 517 kts | 73° |
| 2026-05-01 13:13 | 54.51027 | -68.22367 | 38963 ft | 517 kts | 73° |
| 2026-05-01 13:13 | 54.53497 | -68.10834 | 38963 ft | 517 kts | 73° |
| 2026-05-01 13:14 | 54.55973 | -67.99213 | 38961 ft | 516 kts | 73° |
| 2026-05-01 13:14 | 54.58442 | -67.87558 | 38976 ft | 517 kts | 73° |
| 2026-05-01 13:15 | 54.60884 | -67.75963 | 38974 ft | 517 kts | 73° |
| 2026-05-01 13:15 | 54.63331 | -67.64280 | 38979 ft | 517 kts | 73° |
| 2026-05-01 13:16 | 54.65764 | -67.52591 | 38977 ft | 517 kts | 74° |
| 2026-05-01 13:16 | 54.68191 | -67.40868 | 38980 ft | 517 kts | 74° |
| 2026-05-01 13:17 | 54.72990 | -67.17473 | 38966 ft | 517 kts | 74° |
| 2026-05-01 13:18 | 54.76572 | -66.99835 | 38951 ft | 518 kts | 74° |
| 2026-05-01 13:18 | 54.78932 | -66.88130 | 38938 ft | 517 kts | 74° |
| 2026-05-01 13:19 | 54.81295 | -66.76342 | 38952 ft | 517 kts | 74° |
| 2026-05-01 13:20 | 54.84457 | -66.58498 | 38990 ft | 516 kts | 78° |
| 2026-05-01 13:20 | 54.86383 | -66.46486 | 39001 ft | 516 kts | 78° |
| 2026-05-01 13:21 | 54.89317 | -66.28539 | 39010 ft | 516 kts | 77° |
| 2026-05-01 13:21 | 54.91295 | -66.16528 | 39012 ft | 516 kts | 78° |
| 2026-05-01 13:22 | 54.93260 | -66.04526 | 39013 ft | 516 kts | 78° |
| 2026-05-01 13:22 | 54.95213 | -65.92501 | 39023 ft | 516 kts | 78° |
| 2026-05-01 13:23 | 54.97152 | -65.80469 | 39022 ft | 516 kts | 78° |
| 2026-05-01 13:23 | 54.99081 | -65.68407 | 39039 ft | 517 kts | 78° |
| 2026-05-01 13:24 | 55.01000 | -65.56330 | 39042 ft | 517 kts | 78° |
| 2026-05-01 13:25 | 55.03844 | -65.38267 | 39053 ft | 517 kts | 78° |
| 2026-05-01 13:25 | 55.05733 | -65.26160 | 39059 ft | 517 kts | 78° |
| 2026-05-01 13:26 | 55.07608 | -65.14050 | 39053 ft | 517 kts | 78° |
| 2026-05-01 13:26 | 55.09471 | -65.01939 | 39069 ft | 516 kts | 78° |
| 2026-05-01 13:27 | 55.11320 | -64.89824 | 39075 ft | 515 kts | 78° |
| 2026-05-01 13:27 | 55.14056 | -64.71722 | 39083 ft | 515 kts | 78° |
| 2026-05-01 13:28 | 55.16775 | -64.53540 | 39102 ft | 515 kts | 79° |
| 2026-05-01 13:29 | 55.20342 | -64.29360 | 39113 ft | 513 kts | 79° |
| 2026-05-01 13:31 | 55.25591 | -63.93092 | 39124 ft | 512 kts | 79° |
| 2026-05-01 13:32 | 55.29883 | -63.62799 | 39125 ft | 511 kts | 79° |
| 2026-05-01 13:33 | 55.34094 | -63.32482 | 39132 ft | 511 kts | 79° |
| 2026-05-01 13:34 | 55.37400 | -63.08245 | 39132 ft | 511 kts | 80° |
| 2026-05-01 13:35 | 55.39857 | -62.89978 | 39131 ft | 510 kts | 80° |
| 2026-05-01 13:36 | 55.42271 | -62.71807 | 39130 ft | 510 kts | 80° |
| 2026-05-01 13:36 | 55.44669 | -62.53521 | 39129 ft | 511 kts | 80° |
| 2026-05-01 13:37 | 55.46254 | -62.41311 | 39121 ft | 511 kts | 80° |
| 2026-05-01 13:37 | 55.47826 | -62.29101 | 39121 ft | 510 kts | 80° |
| 2026-05-01 13:38 | 55.50151 | -62.10837 | 39116 ft | 510 kts | 81° |
| 2026-05-01 13:39 | 55.51695 | -61.98588 | 39121 ft | 510 kts | 81° |
| 2026-05-01 13:39 | 55.53218 | -61.86395 | 39122 ft | 510 kts | 81° |
| 2026-05-01 13:40 | 55.54734 | -61.74147 | 39110 ft | 510 kts | 81° |
| 2026-05-01 13:40 | 55.56239 | -61.61878 | 39116 ft | 510 kts | 81° |
| 2026-05-01 13:41 | 55.57730 | -61.49626 | 39104 ft | 510 kts | 81° |
| 2026-05-01 13:41 | 55.59210 | -61.37350 | 39122 ft | 511 kts | 81° |
| 2026-05-01 13:42 | 55.60676 | -61.25061 | 39119 ft | 510 kts | 81° |
| 2026-05-01 13:42 | 55.62121 | -61.12844 | 39114 ft | 510 kts | 81° |
| 2026-05-01 13:43 | 55.63567 | -61.00510 | 39114 ft | 511 kts | 81° |
| 2026-05-01 13:43 | 55.65000 | -60.88181 | 39113 ft | 511 kts | 81° |
| 2026-05-01 13:44 | 55.66410 | -60.75925 | 39106 ft | 510 kts | 82° |
| 2026-05-01 13:44 | 55.67816 | -60.63599 | 39121 ft | 510 kts | 82° |
| 2026-05-01 13:45 | 55.69209 | -60.51264 | 39121 ft | 510 kts | 82° |
| 2026-05-01 13:45 | 55.70591 | -60.38906 | 39121 ft | 510 kts | 82° |
| 2026-05-01 13:46 | 55.71958 | -60.26561 | 39124 ft | 510 kts | 82° |
| 2026-05-01 13:46 | 55.73304 | -60.14291 | 39135 ft | 510 kts | 82° |
| 2026-05-01 13:47 | 55.74645 | -60.01942 | 39132 ft | 510 kts | 82° |
| 2026-05-01 13:47 | 55.75976 | -59.89561 | 39149 ft | 510 kts | 82° |
| 2026-05-01 13:48 | 55.77296 | -59.77159 | 39149 ft | 510 kts | 82° |
| 2026-05-01 13:48 | 55.78602 | -59.64767 | 39148 ft | 510 kts | 83° |
| 2026-05-01 13:49 | 55.79896 | -59.52359 | 39159 ft | 510 kts | 83° |
| 2026-05-01 13:49 | 55.81168 | -59.40040 | 39159 ft | 510 kts | 83° |
| 2026-05-01 13:50 | 55.82436 | -59.27621 | 39151 ft | 510 kts | 83° |
| 2026-05-01 13:50 | 55.83693 | -59.15191 | 39168 ft | 510 kts | 83° |
| 2026-05-01 13:51 | 55.84936 | -59.02762 | 39167 ft | 510 kts | 83° |
| 2026-05-01 13:51 | 55.86166 | -58.90324 | 39179 ft | 509 kts | 83° |
| 2026-05-01 13:52 | 55.87378 | -58.77946 | 39186 ft | 510 kts | 84° |
| 2026-05-01 13:52 | 55.88584 | -58.65482 | 39187 ft | 510 kts | 84° |
| 2026-05-01 13:53 | 55.89778 | -58.53015 | 39165 ft | 510 kts | 84° |
| 2026-05-01 13:53 | 55.91540 | -58.34349 | 39193 ft | 511 kts | 84° |
| 2026-05-01 13:54 | 55.92703 | -58.21848 | 39194 ft | 511 kts | 84° |
| 2026-05-01 13:54 | 55.93855 | -58.09331 | 39194 ft | 511 kts | 84° |
| 2026-05-01 13:55 | 55.94994 | -57.96805 | 39202 ft | 511 kts | 84° |
| 2026-05-01 13:55 | 55.95932 | -57.86364 | 39202 ft | 512 kts | 85° |
| 2026-05-01 13:56 | 55.97052 | -57.73780 | 39199 ft | 513 kts | 85° |
| 2026-05-01 13:56 | 55.98158 | -57.61202 | 39207 ft | 513 kts | 85° |
| 2026-05-01 13:57 | 55.99252 | -57.48603 | 39212 ft | 513 kts | 85° |
| 2026-05-01 13:57 | 56.00333 | -57.36002 | 39216 ft | 513 kts | 85° |
| 2026-05-01 13:58 | 56.01395 | -57.23457 | 39216 ft | 513 kts | 85° |
| 2026-05-01 13:58 | 56.02451 | -57.10833 | 39223 ft | 511 kts | 85° |
| 2026-05-01 13:59 | 56.04150 | -56.98582 | 39220 ft | 510 kts | 70° |
| 2026-05-01 13:59 | 56.07403 | -56.87246 | 39224 ft | 512 kts | 63° |
| 2026-05-01 14:00 | 56.10953 | -56.76252 | 39238 ft | 513 kts | 62° |
| 2026-05-01 14:00 | 56.14562 | -56.65197 | 39238 ft | 513 kts | 62° |
| 2026-05-01 14:01 | 56.18140 | -56.54092 | 39235 ft | 512 kts | 62° |
| 2026-05-01 14:01 | 56.21679 | -56.42987 | 39237 ft | 512 kts | 62° |
| 2026-05-01 14:02 | 56.25176 | -56.31941 | 39235 ft | 512 kts | 63° |
| 2026-05-01 14:02 | 56.28693 | -56.20785 | 39249 ft | 512 kts | 63° |
| 2026-05-01 14:03 | 56.32202 | -56.09602 | 39247 ft | 512 kts | 63° |
| 2026-05-01 14:03 | 56.35696 | -55.98421 | 39254 ft | 511 kts | 63° |
| 2026-05-01 14:04 | 56.39157 | -55.87290 | 39254 ft | 511 kts | 63° |
| 2026-05-01 14:04 | 56.42634 | -55.76055 | 39248 ft | 511 kts | 63° |
| 2026-05-01 14:05 | 56.46092 | -55.64827 | 39264 ft | 510 kts | 63° |
| 2026-05-01 14:05 | 56.49533 | -55.53602 | 39266 ft | 510 kts | 63° |
| 2026-05-01 14:06 | 56.52951 | -55.42399 | 39265 ft | 511 kts | 63° |
| 2026-05-01 14:06 | 56.56376 | -55.31118 | 39270 ft | 511 kts | 63° |
| 2026-05-01 14:07 | 56.59788 | -55.19826 | 39273 ft | 511 kts | 63° |
| 2026-05-01 14:08 | 56.64877 | -55.02884 | 39279 ft | 510 kts | 63° |
| 2026-05-01 14:08 | 56.68270 | -54.91523 | 39278 ft | 510 kts | 63° |
| 2026-05-01 14:09 | 56.71654 | -54.80132 | 39279 ft | 510 kts | 64° |
| 2026-05-01 14:09 | 56.75002 | -54.68808 | 39287 ft | 510 kts | 64° |
| 2026-05-01 14:10 | 56.78363 | -54.57388 | 39291 ft | 510 kts | 64° |
| 2026-05-01 14:10 | 56.81716 | -54.45936 | 39280 ft | 511 kts | 64° |
| 2026-05-01 14:11 | 56.85039 | -54.34530 | 39290 ft | 510 kts | 64° |
| 2026-05-01 14:11 | 56.90025 | -54.17311 | 39295 ft | 510 kts | 64° |
| 2026-05-01 14:12 | 56.93338 | -54.05801 | 39297 ft | 510 kts | 64° |
| 2026-05-01 14:12 | 56.96633 | -53.94295 | 39298 ft | 511 kts | 64° |
| 2026-05-01 14:13 | 56.99372 | -53.84686 | 39300 ft | 511 kts | 64° |
| 2026-05-01 14:13 | 57.03192 | -53.71217 | 39300 ft | 511 kts | 64° |
| 2026-05-01 14:14 | 57.06469 | -53.59602 | 39306 ft | 511 kts | 64° |
| 2026-05-01 14:14 | 57.09735 | -53.47965 | 39308 ft | 511 kts | 64° |
| 2026-05-01 14:15 | 57.12995 | -53.36293 | 39309 ft | 512 kts | 64° |
| 2026-05-01 14:15 | 57.16241 | -53.24609 | 39311 ft | 512 kts | 64° |
| 2026-05-01 14:16 | 57.19457 | -53.12976 | 39303 ft | 512 kts | 64° |
| 2026-05-01 14:16 | 57.22678 | -53.01266 | 39317 ft | 510 kts | 64° |
| 2026-05-01 14:17 | 57.25882 | -52.89557 | 39315 ft | 510 kts | 64° |
| 2026-05-01 14:17 | 57.29078 | -52.77814 | 39320 ft | 511 kts | 64° |
| 2026-05-01 14:18 | 57.32265 | -52.66047 | 39319 ft | 512 kts | 64° |
| 2026-05-01 14:18 | 57.34903 | -52.56259 | 39328 ft | 512 kts | 64° |
| 2026-05-01 14:19 | 57.38589 | -52.42512 | 39328 ft | 512 kts | 64° |
| 2026-05-01 14:19 | 57.41751 | -52.30650 | 39328 ft | 512 kts | 64° |
| 2026-05-01 14:20 | 57.46462 | -52.12864 | 39329 ft | 513 kts | 64° |
| 2026-05-01 14:21 | 57.49601 | -52.00935 | 39333 ft | 513 kts | 65° |
| 2026-05-01 14:21 | 57.52732 | -51.88969 | 39336 ft | 514 kts | 65° |
| 2026-05-01 14:22 | 57.57404 | -51.70999 | 39329 ft | 514 kts | 64° |
| 2026-05-01 14:22 | 57.60488 | -51.59062 | 39342 ft | 514 kts | 65° |
| 2026-05-01 14:23 | 57.63579 | -51.47029 | 39350 ft | 514 kts | 65° |
| 2026-05-01 14:23 | 57.66655 | -51.34986 | 39341 ft | 514 kts | 65° |
| 2026-05-01 14:24 | 57.69720 | -51.22926 | 39348 ft | 514 kts | 65° |
| 2026-05-01 14:24 | 57.72781 | -51.10812 | 39336 ft | 515 kts | 65° |
| 2026-05-01 14:25 | 57.75832 | -50.98674 | 39341 ft | 515 kts | 65° |
| 2026-05-01 14:25 | 57.78858 | -50.86567 | 39351 ft | 515 kts | 65° |
| 2026-05-01 14:26 | 57.83400 | -50.68273 | 39350 ft | 515 kts | 65° |
| 2026-05-01 14:27 | 57.86416 | -50.56035 | 39346 ft | 516 kts | 65° |
| 2026-05-01 14:27 | 57.89402 | -50.43855 | 39346 ft | 517 kts | 65° |
| 2026-05-01 14:28 | 57.93892 | -50.25414 | 39357 ft | 516 kts | 65° |
| 2026-05-01 14:28 | 57.96861 | -50.13133 | 39343 ft | 515 kts | 65° |
| 2026-05-01 14:29 | 57.99728 | -50.00758 | 39360 ft | 516 kts | 70° |
| 2026-05-01 14:30 | 58.03639 | -49.74667 | 39353 ft | 517 kts | 75° |
| 2026-05-01 14:31 | 58.06345 | -49.55045 | 39342 ft | 517 kts | 75° |
| 2026-05-01 14:31 | 58.08156 | -49.41887 | 39341 ft | 517 kts | 75° |
| 2026-05-01 14:32 | 58.09959 | -49.28722 | 39351 ft | 517 kts | 75° |
| 2026-05-01 14:32 | 58.11748 | -49.15550 | 39357 ft | 517 kts | 76° |
| 2026-05-01 14:33 | 58.13525 | -49.02355 | 39347 ft | 517 kts | 76° |
| 2026-05-01 14:33 | 58.15276 | -48.89234 | 39366 ft | 517 kts | 76° |
| 2026-05-01 14:34 | 58.17023 | -48.76028 | 39375 ft | 517 kts | 76° |
| 2026-05-01 14:34 | 58.18759 | -48.62784 | 39355 ft | 518 kts | 76° |
| 2026-05-01 14:35 | 58.20486 | -48.49494 | 39360 ft | 518 kts | 76° |
| 2026-05-01 14:35 | 58.22186 | -48.36299 | 39357 ft | 519 kts | 76° |
| 2026-05-01 14:36 | 58.23887 | -48.22971 | 39357 ft | 519 kts | 76° |
| 2026-05-01 14:36 | 58.25575 | -48.09623 | 39357 ft | 518 kts | 76° |
| 2026-05-01 14:37 | 58.27246 | -47.96286 | 39370 ft | 519 kts | 76° |
| 2026-05-01 14:37 | 58.28894 | -47.83018 | 39354 ft | 519 kts | 76° |
| 2026-05-01 14:38 | 58.30540 | -47.69637 | 39365 ft | 519 kts | 76° |
| 2026-05-01 14:38 | 58.32173 | -47.56232 | 39352 ft | 519 kts | 76° |
| 2026-05-01 14:39 | 58.33778 | -47.42938 | 39359 ft | 519 kts | 77° |
| 2026-05-01 14:39 | 58.35380 | -47.29533 | 39360 ft | 519 kts | 77° |
| 2026-05-01 14:40 | 58.36970 | -47.16106 | 39360 ft | 520 kts | 77° |
| 2026-05-01 14:40 | 58.38549 | -47.02639 | 39357 ft | 520 kts | 77° |
| 2026-05-01 14:41 | 58.40111 | -46.89181 | 39360 ft | 520 kts | 77° |
| 2026-05-01 14:41 | 58.41658 | -46.75723 | 39351 ft | 519 kts | 77° |
| 2026-05-01 14:42 | 58.43190 | -46.62260 | 39377 ft | 519 kts | 77° |
| 2026-05-01 14:42 | 58.44700 | -46.48855 | 39357 ft | 519 kts | 77° |
| 2026-05-01 14:43 | 58.45954 | -46.37614 | 39357 ft | 519 kts | 77° |
| 2026-05-01 14:43 | 58.47449 | -46.24091 | 39357 ft | 519 kts | 77° |
| 2026-05-01 14:44 | 58.48929 | -46.10564 | 39352 ft | 519 kts | 77° |
| 2026-05-01 14:44 | 58.51121 | -45.90258 | 39365 ft | 519 kts | 78° |
| 2026-05-01 14:45 | 58.53274 | -45.70001 | 39355 ft | 520 kts | 78° |
| 2026-05-01 14:46 | 58.54697 | -45.56424 | 39349 ft | 520 kts | 78° |
| 2026-05-01 14:46 | 58.56807 | -45.36021 | 39352 ft | 520 kts | 78° |
| 2026-05-01 14:47 | 58.58187 | -45.22496 | 39345 ft | 520 kts | 78° |
| 2026-05-01 14:48 | 58.60244 | -45.02045 | 39344 ft | 521 kts | 78° |
| 2026-05-01 14:48 | 58.62272 | -44.81538 | 39344 ft | 521 kts | 78° |
| 2026-05-01 14:49 | 58.64925 | -44.54151 | 39340 ft | 521 kts | 79° |
| 2026-05-01 14:50 | 58.67514 | -44.26785 | 39332 ft | 523 kts | 79° |
| 2026-05-01 14:51 | 58.69431 | -44.06098 | 39330 ft | 523 kts | 79° |
| 2026-05-01 14:52 | 58.71315 | -43.85377 | 39319 ft | 524 kts | 79° |
| 2026-05-01 14:53 | 58.73159 | -43.64704 | 39318 ft | 525 kts | 79° |
| 2026-05-01 14:53 | 58.74380 | -43.50798 | 39305 ft | 526 kts | 79° |
| 2026-05-01 14:54 | 58.75587 | -43.36871 | 39314 ft | 526 kts | 79° |
| 2026-05-01 14:54 | 58.76770 | -43.23050 | 39306 ft | 526 kts | 79° |
| 2026-05-01 14:55 | 58.77947 | -43.09105 | 39305 ft | 526 kts | 80° |
| 2026-05-01 14:55 | 58.79109 | -42.95149 | 39302 ft | 526 kts | 79° |
| 2026-05-01 14:56 | 58.80253 | -42.81214 | 39298 ft | 526 kts | 80° |
| 2026-05-01 14:56 | 58.81377 | -42.67334 | 39290 ft | 526 kts | 80° |
| 2026-05-01 14:57 | 58.82493 | -42.53367 | 39296 ft | 526 kts | 80° |
| 2026-05-01 14:57 | 58.84131 | -42.32490 | 39286 ft | 526 kts | 80° |
| 2026-05-01 14:58 | 58.85208 | -42.18521 | 39290 ft | 525 kts | 80° |
| 2026-05-01 14:58 | 58.86269 | -42.04553 | 39290 ft | 525 kts | 81° |
| 2026-05-01 14:59 | 58.87315 | -41.90571 | 39289 ft | 525 kts | 81° |
| 2026-05-01 14:59 | 58.88339 | -41.76671 | 39290 ft | 525 kts | 81° |
| 2026-05-01 15:00 | 58.89856 | -41.55694 | 39300 ft | 525 kts | 81° |
| 2026-05-01 15:01 | 58.90848 | -41.41688 | 39284 ft | 525 kts | 81° |
| 2026-05-01 15:01 | 58.91827 | -41.27657 | 39284 ft | 525 kts | 81° |
| 2026-05-01 15:02 | 58.92783 | -41.13735 | 39277 ft | 525 kts | 81° |
| 2026-05-01 15:02 | 58.93730 | -40.99708 | 39279 ft | 525 kts | 81° |
| 2026-05-01 15:03 | 58.94663 | -40.85662 | 39276 ft | 525 kts | 81° |
| 2026-05-01 15:03 | 58.95576 | -40.71689 | 39283 ft | 525 kts | 81° |
| 2026-05-01 15:04 | 58.96479 | -40.57616 | 39273 ft | 526 kts | 82° |
| 2026-05-01 15:04 | 58.97368 | -40.43514 | 39273 ft | 526 kts | 82° |
| 2026-05-01 15:05 | 58.98236 | -40.29509 | 39265 ft | 526 kts | 82° |
| 2026-05-01 15:05 | 58.99095 | -40.15382 | 39273 ft | 526 kts | 82° |
| 2026-05-01 15:06 | 58.99933 | -40.01361 | 39274 ft | 526 kts | 82° |
| 2026-05-01 15:06 | 59.00625 | -39.87205 | 39265 ft | 528 kts | 84° |
| 2026-05-01 15:07 | 59.01093 | -39.72983 | 39259 ft | 528 kts | 85° |
| 2026-05-01 15:07 | 59.01551 | -39.58753 | 39259 ft | 528 kts | 85° |
| 2026-05-01 15:08 | 59.02030 | -39.44528 | 39263 ft | 528 kts | 85° |
| 2026-05-01 15:08 | 59.02511 | -39.30297 | 39262 ft | 528 kts | 85° |
| 2026-05-01 15:09 | 59.02976 | -39.16145 | 39259 ft | 528 kts | 85° |
| 2026-05-01 15:09 | 59.03426 | -39.01914 | 39252 ft | 527 kts | 85° |
| 2026-05-01 15:10 | 59.03859 | -38.87684 | 39250 ft | 527 kts | 85° |
| 2026-05-01 15:10 | 59.04477 | -38.66428 | 39250 ft | 527 kts | 85° |
| 2026-05-01 15:11 | 59.05063 | -38.45050 | 39252 ft | 527 kts | 85° |
| 2026-05-01 15:12 | 59.05434 | -38.30807 | 39240 ft | 528 kts | 86° |
| 2026-05-01 15:12 | 59.05961 | -38.09433 | 39235 ft | 528 kts | 86° |
| 2026-05-01 15:14 | 59.06760 | -37.73871 | 39232 ft | 528 kts | 86° |
| 2026-05-01 15:14 | 59.07193 | -37.52523 | 39232 ft | 528 kts | 86° |
| 2026-05-01 15:15 | 59.07718 | -37.23921 | 39228 ft | 529 kts | 87° |
| 2026-05-01 15:16 | 59.08178 | -36.95411 | 39239 ft | 529 kts | 87° |
| 2026-05-01 15:18 | 59.08667 | -36.59602 | 39232 ft | 530 kts | 88° |
| 2026-05-01 15:19 | 59.08987 | -36.30977 | 39227 ft | 530 kts | 88° |
| 2026-05-01 15:19 | 59.09185 | -36.09527 | 39241 ft | 530 kts | 88° |
| 2026-05-01 15:20 | 59.09349 | -35.87964 | 39228 ft | 532 kts | 88° |
| 2026-05-01 15:21 | 59.09439 | -35.73559 | 39236 ft | 532 kts | 88° |
| 2026-05-01 15:21 | 59.09512 | -35.59221 | 39212 ft | 532 kts | 88° |
| 2026-05-01 15:22 | 59.09592 | -35.37624 | 39260 ft | 532 kts | 88° |
| 2026-05-01 15:22 | 59.09626 | -35.23166 | 39226 ft | 534 kts | 89° |
| 2026-05-01 15:23 | 59.09644 | -35.08687 | 39238 ft | 535 kts | 89° |
| 2026-05-01 15:23 | 59.09646 | -34.94319 | 39235 ft | 534 kts | 89° |
| 2026-05-01 15:24 | 59.09631 | -34.79854 | 39234 ft | 535 kts | 89° |
| 2026-05-01 15:24 | 59.09601 | -34.65391 | 39229 ft | 535 kts | 89° |
| 2026-05-01 15:25 | 59.09554 | -34.50912 | 39236 ft | 535 kts | 89° |
| 2026-05-01 15:25 | 59.09491 | -34.36432 | 39232 ft | 535 kts | 89° |
| 2026-05-01 15:26 | 59.09413 | -34.22058 | 39230 ft | 535 kts | 89° |
| 2026-05-01 15:26 | 59.09318 | -34.07581 | 39230 ft | 535 kts | 90° |
| 2026-05-01 15:27 | 59.09207 | -33.93109 | 39235 ft | 535 kts | 90° |
| 2026-05-01 15:28 | 59.09010 | -33.71386 | 39235 ft | 536 kts | 90° |
| 2026-05-01 15:28 | 59.08860 | -33.56950 | 39236 ft | 537 kts | 90° |
| 2026-05-01 15:29 | 59.08601 | -33.35166 | 39227 ft | 537 kts | 90° |
| 2026-05-01 15:30 | 59.08237 | -33.08585 | 39235 ft | 537 kts | 90° |
| 2026-05-01 15:31 | 59.07478 | -32.62626 | 39231 ft | 538 kts | 91° |
| 2026-05-01 15:32 | 59.06914 | -32.33545 | 39224 ft | 538 kts | 91° |
| 2026-05-01 15:34 | 59.06004 | -31.92389 | 39228 ft | 538 kts | 91° |